Time;durP1;ratioP1;P1;durP2;ratioP2;P2;SDS_P1;SDS_P2;PMS_P1;PMS_P2;Temp;Humidity;BMP_temperature;BMP_pressure;BME280_temperature;BME280_humidity;BME280_pressure;Samples;Min_cycle;Max_cycle;Signal;HPM_P1;HPM_P2
2024/01/21 00:02:21;;;;;;;13.80;8.17;;;-0.30;99.90;;;;;;5017201;28;20044;-76
2024/01/21 00:04:49;;;;;;;15.53;9.50;;;-0.40;99.90;;;;;;5067405;28;22175;-79
2024/01/21 00:07:15;;;;;;;15.27;9.17;;;-0.40;99.90;;;;;;5032516;28;20029;-78
2024/01/21 00:09:41;;;;;;;16.23;10.03;;;-0.40;99.90;;;;;;5052273;28;20554;-78
2024/01/21 00:12:08;;;;;;;14.77;8.90;;;-0.40;99.90;;;;;;5034847;28;20036;-76
2024/01/21 00:14:37;;;;;;;12.73;8.60;;;-0.40;99.90;;;;;;5068410;28;20036;-78
2024/01/21 00:17:05;;;;;;;13.77;8.27;;;-0.50;99.90;;;;;;5048326;28;20467;-77
2024/01/21 00:19:31;;;;;;;13.97;9.47;;;-0.50;99.90;;;;;;5028305;28;20044;-76
2024/01/21 00:21:57;;;;;;;13.70;8.00;;;-0.50;99.90;;;;;;5037058;28;20072;-77
2024/01/21 00:24:24;;;;;;;13.93;9.00;;;-0.50;99.90;;;;;;5052984;28;20292;-78
2024/01/21 00:26:50;;;;;;;14.83;9.43;;;-0.50;99.90;;;;;;5053605;28;20029;-76
2024/01/21 00:29:17;;;;;;;14.43;9.03;;;-0.50;99.90;;;;;;5067210;28;20040;-77
2024/01/21 00:31:43;;;;;;;16.03;9.10;;;-0.40;99.90;;;;;;5062971;28;20131;-77
2024/01/21 00:34:09;;;;;;;13.93;8.07;;;-0.50;99.90;;;;;;5051143;28;20130;-78
2024/01/21 00:36:36;;;;;;;14.30;7.93;;;-0.40;99.90;;;;;;5034892;28;20066;-77
2024/01/21 00:39:02;;;;;;;14.30;8.03;;;-0.40;99.90;;;;;;5034351;28;20048;-76
2024/01/21 00:41:29;;;;;;;14.13;9.70;;;-0.40;99.90;;;;;;5034484;28;20035;-79
2024/01/21 00:43:55;;;;;;;14.07;8.57;;;-0.50;99.90;;;;;;5052389;28;20046;-75
2024/01/21 00:46:21;;;;;;;10.37;6.87;;;-0.50;99.90;;;;;;5053451;28;20039;-75
2024/01/21 00:48:49;;;;;;;12.97;8.03;;;-0.50;99.90;;;;;;5036055;28;20220;-78
2024/01/21 00:51:15;;;;;;;10.77;6.90;;;-0.50;99.90;;;;;;5051250;28;20476;-78
2024/01/21 00:53:42;;;;;;;11.50;6.67;;;-0.50;99.90;;;;;;5052736;28;20024;-76
2024/01/21 00:56:08;;;;;;;13.10;8.13;;;-0.50;99.90;;;;;;5017959;28;20032;-76
2024/01/21 00:58:34;;;;;;;13.13;7.83;;;-0.60;99.90;;;;;;5053459;28;20552;-76
2024/01/21 01:01:01;;;;;;;12.07;6.97;;;-0.60;99.90;;;;;;5051780;28;20036;-73
2024/01/21 01:03:27;;;;;;;11.77;6.80;;;-0.60;99.90;;;;;;5051025;28;20043;-78
2024/01/21 01:05:53;;;;;;;9.87;6.10;;;-0.60;99.90;;;;;;5053881;28;20034;-79
2024/01/21 01:08:20;;;;;;;10.20;6.57;;;-0.60;99.90;;;;;;5052633;28;20406;-78
2024/01/21 01:10:46;;;;;;;11.37;6.77;;;-0.70;99.90;;;;;;5050169;28;20041;-78
2024/01/21 01:13:13;;;;;;;10.73;6.17;;;-0.70;99.90;;;;;;5051793;28;20028;-76
2024/01/21 01:15:39;;;;;;;9.90;6.00;;;-0.70;99.90;;;;;;5034365;28;20052;-78
2024/01/21 01:18:05;;;;;;;9.83;5.70;;;-0.80;99.90;;;;;;5051875;28;20032;-75
2024/01/21 01:20:32;;;;;;;12.90;7.30;;;-0.80;99.90;;;;;;5049334;28;20040;-77
2024/01/21 01:22:58;;;;;;;9.50;5.80;;;-0.80;99.90;;;;;;5083326;28;20048;-78
2024/01/21 01:25:27;;;;;;;12.03;7.03;;;-0.90;99.90;;;;;;5052504;28;20043;-77
2024/01/21 01:27:53;;;;;;;11.97;6.80;;;-0.90;99.90;;;;;;5032679;28;20391;-76
2024/01/21 01:30:19;;;;;;;10.23;6.13;;;-0.90;99.90;;;;;;5034122;28;20507;-76
2024/01/21 01:32:46;;;;;;;11.63;6.63;;;-1.00;99.90;;;;;;5052105;28;20032;-72
2024/01/21 01:35:12;;;;;;;11.13;6.90;;;-1.00;99.90;;;;;;5033338;28;20036;-74
2024/01/21 01:37:38;;;;;;;14.00;7.17;;;-1.00;99.90;;;;;;5035075;28;20047;-77
2024/01/21 01:40:08;;;;;;;11.87;6.83;;;-1.00;99.90;;;;;;5033338;28;20040;-76
2024/01/21 01:42:34;;;;;;;14.07;7.53;;;-1.00;99.90;;;;;;5082627;28;20040;-77
2024/01/21 01:45:01;;;;;;;10.63;6.23;;;-1.00;99.90;;;;;;5068269;28;20442;-75
2024/01/21 01:47:28;;;;;;;11.83;6.70;;;-1.00;99.90;;;;;;5054644;28;20037;-76
2024/01/21 01:49:56;;;;;;;11.50;6.43;;;-1.00;99.90;;;;;;5054759;28;20119;-76
2024/01/21 01:52:22;;;;;;;10.10;5.73;;;-1.00;99.90;;;;;;5056644;28;20400;-77
2024/01/21 01:54:49;;;;;;;10.43;6.73;;;-0.90;99.90;;;;;;5041344;28;20040;-77
2024/01/21 01:57:17;;;;;;;12.33;6.70;;;-0.90;99.90;;;;;;5057418;28;20475;-74
2024/01/21 01:59:44;;;;;;;10.27;6.17;;;-0.90;99.90;;;;;;5071380;27;20039;-78
2024/01/21 02:02:11;;;;;;;11.17;6.80;;;-0.90;99.90;;;;;;5058034;28;20630;-78
2024/01/21 02:04:38;;;;;;;8.80;5.37;;;-0.90;99.90;;;;;;5057400;28;20028;-76
2024/01/21 02:07:04;;;;;;;10.17;6.90;;;-0.90;99.90;;;;;;5059661;28;20043;-78
2024/01/21 02:09:30;;;;;;;10.00;6.27;;;-0.90;99.90;;;;;;5069574;28;20032;-74
2024/01/21 02:11:57;;;;;;;11.00;6.20;;;-0.90;99.90;;;;;;5058211;28;20483;-78
2024/01/21 02:14:24;;;;;;;8.97;5.90;;;-1.00;99.90;;;;;;5036924;28;20071;-75
2024/01/21 02:16:50;;;;;;;11.10;6.13;;;-1.00;99.90;;;;;;5039124;28;20146;-77
2024/01/21 02:19:27;;;;;;;10.40;6.10;;;-1.00;99.90;;;;;;5072204;28;20039;-76
2024/01/21 02:21:55;;;;;;;9.27;5.80;;;-1.00;99.90;;;;;;5055807;28;20032;-77
2024/01/21 02:24:21;;;;;;;11.57;5.73;;;-1.00;99.90;;;;;;5038019;28;20036;-74
2024/01/21 02:26:50;;;;;;;9.27;5.37;;;-1.00;99.90;;;;;;5056785;28;20036;-76
2024/01/21 02:29:16;;;;;;;10.30;5.80;;;-1.10;99.90;;;;;;5020895;28;20403;-77
2024/01/21 02:31:43;;;;;;;8.07;5.00;;;-1.10;99.90;;;;;;5056335;28;20051;-76
2024/01/21 02:34:09;;;;;;;11.03;5.97;;;-1.10;99.90;;;;;;5055137;28;20051;-78
2024/01/21 02:36:36;;;;;;;9.87;5.63;;;-1.10;99.90;;;;;;5020187;28;20406;-78
2024/01/21 02:39:02;;;;;;;9.57;4.93;;;-1.10;99.90;;;;;;5055576;28;20039;-74
2024/01/21 02:41:29;;;;;;;9.50;5.67;;;-1.10;99.90;;;;;;5057150;28;20040;-78
2024/01/21 02:43:55;;;;;;;9.60;6.10;;;-1.10;99.90;;;;;;5073642;28;20048;-75
2024/01/21 02:46:22;;;;;;;8.90;5.20;;;-1.10;99.90;;;;;;5056027;28;20033;-78
2024/01/21 02:48:48;;;;;;;9.40;5.60;;;-1.10;99.90;;;;;;5018900;28;20526;-78
2024/01/21 02:51:15;;;;;;;9.57;5.47;;;-1.10;99.90;;;;;;5037376;28;20470;-78
2024/01/21 02:53:41;;;;;;;9.40;5.90;;;-1.00;99.90;;;;;;5039280;28;20351;-77
2024/01/21 02:56:08;;;;;;;8.97;6.23;;;-1.00;99.90;;;;;;5055656;28;20526;-77
2024/01/21 02:58:35;;;;;;;9.70;5.67;;;-1.00;99.90;;;;;;5018138;28;20039;-78
2024/01/21 03:01:02;;;;;;;10.70;5.60;;;-0.90;99.90;;;;;;5053546;28;20035;-78
2024/01/21 03:03:28;;;;;;;8.40;5.23;;;-0.90;99.90;;;;;;5055234;28;20043;-74
2024/01/21 03:05:54;;;;;;;8.67;4.93;;;-0.80;99.90;;;;;;5038618;28;20048;-78
2024/01/21 03:08:21;;;;;;;8.73;5.23;;;-0.80;99.90;;;;;;5021163;28;20044;-78
2024/01/21 03:10:47;;;;;;;9.43;5.70;;;-0.70;99.90;;;;;;5052751;28;20043;-78
2024/01/21 03:13:13;;;;;;;8.67;5.53;;;-0.70;99.90;;;;;;5051877;28;20048;-77
2024/01/21 03:15:39;;;;;;;9.70;5.70;;;-0.60;99.90;;;;;;5036051;28;20043;-77
2024/01/21 03:18:06;;;;;;;7.83;4.87;;;-0.60;99.90;;;;;;5052820;28;20443;-77
2024/01/21 03:20:33;;;;;;;8.40;5.10;;;-0.60;99.90;;;;;;5051094;28;20048;-75
2024/01/21 03:22:59;;;;;;;10.33;5.33;;;-0.60;99.90;;;;;;5054596;28;20474;-74
2024/01/21 03:25:26;;;;;;;8.93;5.43;;;-0.50;99.90;;;;;;5037918;28;20039;-75
2024/01/21 03:27:52;;;;;;;8.07;5.00;;;-0.50;99.90;;;;;;5036227;28;20043;-75
2024/01/21 03:30:18;;;;;;;9.20;4.90;;;-0.50;99.90;;;;;;5055127;28;20032;-76
2024/01/21 03:32:45;;;;;;;7.63;4.87;;;-0.50;99.90;;;;;;5056452;28;20037;-78
2024/01/21 03:35:11;;;;;;;6.90;4.43;;;-0.40;99.90;;;;;;5056709;28;20041;-79
2024/01/21 03:37:38;;;;;;;6.70;4.00;;;-0.40;99.90;;;;;;5056735;28;20059;-76
2024/01/21 03:40:06;;;;;;;7.43;4.63;;;-0.40;99.90;;;;;;5036592;28;20035;-77
2024/01/21 03:42:32;;;;;;;9.20;4.87;;;-0.40;99.90;;;;;;5035966;28;20685;-76
2024/01/21 03:44:58;;;;;;;7.83;4.70;;;-0.40;99.90;;;;;;5038593;28;20033;-77
2024/01/21 03:47:25;;;;;;;8.20;4.83;;;-0.40;99.90;;;;;;5054868;28;20519;-73
2024/01/21 03:49:51;;;;;;;7.57;4.57;;;-0.40;99.90;;;;;;5020068;28;20587;-78
2024/01/21 03:52:18;;;;;;;8.57;4.40;;;-0.40;99.90;;;;;;5038613;28;20063;-78
2024/01/21 03:54:45;;;;;;;7.57;4.53;;;-0.40;99.90;;;;;;5035793;28;20036;-77
2024/01/21 03:57:11;;;;;;;6.90;4.20;;;-0.50;99.90;;;;;;5055312;28;20107;-77
2024/01/21 03:59:39;;;;;;;8.53;4.33;;;-0.50;99.90;;;;;;5037429;28;20028;-74
2024/01/21 04:02:06;;;;;;;8.53;4.43;;;-0.50;99.90;;;;;;5019349;28;20036;-78
2024/01/21 04:04:32;;;;;;;8.33;4.67;;;-0.50;99.90;;;;;;5054625;28;20036;-74
2024/01/21 04:06:58;;;;;;;8.10;3.53;;;-0.60;99.90;;;;;;5036164;28;20479;-76
2024/01/21 04:09:25;;;;;;;7.80;4.10;;;-0.60;99.90;;;;;;5034475;28;20418;-75
2024/01/21 04:11:51;;;;;;;7.30;3.87;;;-0.60;99.90;;;;;;5034325;28;20040;-78
2024/01/21 04:14:18;;;;;;;7.70;4.07;;;-0.60;99.90;;;;;;5038106;28;20180;-77
2024/01/21 04:16:44;;;;;;;6.30;3.50;;;-0.60;99.90;;;;;;5054342;28;20024;-78
2024/01/21 04:19:12;;;;;;;4.80;2.93;;;-0.60;99.90;;;;;;5055145;28;20032;-77
2024/01/21 04:21:38;;;;;;;6.83;3.80;;;-0.60;99.90;;;;;;5054542;28;20020;-76
2024/01/21 04:24:05;;;;;;;7.77;3.67;;;-0.60;99.90;;;;;;5038561;28;20035;-74
2024/01/21 04:26:31;;;;;;;7.73;3.83;;;-0.70;99.90;;;;;;5038430;28;20059;-75
2024/01/21 04:28:58;;;;;;;5.83;3.07;;;-0.70;99.90;;;;;;5056005;28;20028;-78
2024/01/21 04:31:24;;;;;;;7.50;3.73;;;-0.70;99.90;;;;;;5053618;28;20307;-77
2024/01/21 04:33:50;;;;;;;6.90;3.83;;;-0.70;99.90;;;;;;5055713;28;20483;-76
2024/01/21 04:36:22;;;;;;;6.17;3.03;;;-0.70;99.90;;;;;;5034063;28;20047;-78
2024/01/21 04:38:49;;;;;;;5.82;3.03;;;-0.70;99.90;;;;;;5066769;28;20028;-78
2024/01/21 04:41:15;;;;;;;6.73;3.97;;;-0.70;99.90;;;;;;5036071;28;20052;-78
2024/01/21 04:43:42;;;;;;;5.63;3.13;;;-0.70;99.90;;;;;;5037249;28;20040;-77
2024/01/21 04:46:08;;;;;;;5.83;2.97;;;-0.70;99.90;;;;;;5034698;28;20036;-78
2024/01/21 04:48:35;;;;;;;5.50;3.43;;;-0.70;99.90;;;;;;5033877;28;20399;-79
2024/01/21 04:51:01;;;;;;;4.57;2.60;;;-0.70;99.90;;;;;;5032593;28;20033;-74
2024/01/21 04:53:28;;;;;;;6.27;3.60;;;-0.60;99.90;;;;;;5052150;28;20078;-78
2024/01/21 04:55:54;;;;;;;5.77;3.33;;;-0.70;99.90;;;;;;5053066;28;20106;-79
2024/01/21 04:58:21;;;;;;;6.73;3.77;;;-0.60;99.90;;;;;;5053736;28;20031;-74
2024/01/21 05:00:47;;;;;;;8.93;4.23;;;-0.60;99.90;;;;;;5052291;28;20032;-79
2024/01/21 05:03:14;;;;;;;8.30;3.80;;;-0.50;99.90;;;;;;5051297;28;20483;-77
2024/01/21 05:05:40;;;;;;;7.27;3.57;;;-0.40;99.90;;;;;;5053612;28;20047;-77
2024/01/21 05:08:06;;;;;;;6.57;4.23;;;-0.40;99.90;;;;;;5036217;28;20036;-75
2024/01/21 05:10:33;;;;;;;5.93;3.17;;;-0.30;99.90;;;;;;5037116;28;20032;-77
2024/01/21 05:13:00;;;;;;;6.93;3.47;;;-0.20;99.90;;;;;;5052944;28;20055;-75
2024/01/21 05:15:26;;;;;;;7.00;3.67;;;-0.20;99.90;;;;;;5036780;28;20029;-77
2024/01/21 05:17:56;;;;;;;6.17;2.87;;;-0.10;99.90;;;;;;5053495;28;20471;-76
2024/01/21 05:20:23;;;;;;;5.87;3.30;;;-0.10;99.90;;;;;;5035344;28;20025;-76
2024/01/21 05:22:54;;;;;;;6.33;3.70;;;0.00;99.90;;;;;;5052987;28;20040;-78
2024/01/21 05:25:20;;;;;;;7.40;3.90;;;0.00;99.90;;;;;;5040059;28;20040;-78
2024/01/21 05:27:47;;;;;;;6.63;3.60;;;0.10;99.90;;;;;;5057393;28;20036;-79
2024/01/21 05:30:15;;;;;;;7.57;4.10;;;0.10;99.90;;;;;;5054456;28;20055;-73
2024/01/21 05:32:46;;;;;;;7.60;4.13;;;0.10;99.90;;;;;;5054173;28;20052;-79
2024/01/21 05:35:13;;;;;;;5.73;3.53;;;0.20;99.90;;;;;;5040009;28;20039;-79
2024/01/21 05:37:39;;;;;;;6.90;3.30;;;0.20;99.90;;;;;;5040125;28;20032;-78
2024/01/21 05:40:06;;;;;;;6.43;3.77;;;0.20;99.90;;;;;;5059555;28;20059;-77
2024/01/21 05:42:33;;;;;;;8.70;3.53;;;0.20;99.90;;;;;;5023110;28;20040;-79
2024/01/21 05:44:59;;;;;;;7.00;3.30;;;0.20;99.90;;;;;;5039342;28;20044;-76
2024/01/21 05:47:25;;;;;;;8.23;3.90;;;0.30;99.90;;;;;;5056954;28;20040;-76
2024/01/21 05:49:52;;;;;;;5.87;3.37;;;0.30;99.90;;;;;;5041518;28;20035;-77
2024/01/21 05:52:18;;;;;;;7.07;3.63;;;0.20;99.90;;;;;;5039448;28;20043;-78
2024/01/21 05:54:44;;;;;;;5.37;3.03;;;0.30;99.90;;;;;;5042703;28;20032;-79
2024/01/21 05:57:11;;;;;;;4.90;2.90;;;0.20;99.90;;;;;;5057773;28;20032;-76
2024/01/21 05:59:37;;;;;;;5.47;3.23;;;0.30;99.90;;;;;;5037922;28;20043;-77
2024/01/21 06:02:07;;;;;;;5.77;3.10;;;0.30;99.90;;;;;;5023794;28;20028;-77
2024/01/21 06:04:33;;;;;;;5.87;3.53;;;0.30;99.90;;;;;;5060095;28;20035;-75
2024/01/21 06:07:00;;;;;;;6.20;3.30;;;0.30;99.90;;;;;;5039793;28;20043;-77
2024/01/21 06:09:27;;;;;;;6.73;3.33;;;0.20;99.90;;;;;;5034985;28;20053;-75
2024/01/21 06:11:53;;;;;;;6.13;3.30;;;0.20;99.90;;;;;;5070309;28;20048;-77
2024/01/21 06:14:20;;;;;;;6.07;3.50;;;0.20;99.90;;;;;;5053820;28;20040;-79
2024/01/21 06:16:46;;;;;;;6.27;3.50;;;0.20;99.90;;;;;;5036500;28;20036;-74
2024/01/21 06:19:12;;;;;;;5.47;3.47;;;0.30;99.90;;;;;;5037716;28;20505;-74
2024/01/21 06:21:45;;;;;;;7.80;3.63;;;0.30;99.90;;;;;;5067879;28;20191;-74
2024/01/21 06:24:12;;;;;;;5.73;3.40;;;0.40;99.90;;;;;;5038232;28;20036;-77
2024/01/21 06:26:40;;;;;;;6.23;3.33;;;0.40;99.90;;;;;;5037730;28;20032;-75
2024/01/21 06:29:07;;;;;;;6.17;3.37;;;0.40;99.90;;;;;;5031464;28;20083;-79
2024/01/21 06:31:34;;;;;;;6.93;3.87;;;0.50;99.90;;;;;;5036997;28;20047;-80
2024/01/21 06:34:01;;;;;;;8.40;4.23;;;0.50;99.90;;;;;;5037827;28;20049;-77
2024/01/21 06:36:27;;;;;;;7.70;3.60;;;0.50;99.90;;;;;;5036284;28;20044;-79
2024/01/21 06:38:54;;;;;;;8.00;3.60;;;0.60;99.90;;;;;;5055414;28;20040;-74
2024/01/21 06:41:20;;;;;;;6.60;3.43;;;0.60;99.90;;;;;;5054085;28;20036;-77
2024/01/21 06:43:47;;;;;;;5.47;3.30;;;0.60;99.90;;;;;;5040463;28;20043;-78
2024/01/21 06:46:15;;;;;;;7.43;3.63;;;0.70;99.90;;;;;;5056969;28;20040;-74
2024/01/21 06:48:41;;;;;;;7.23;3.90;;;0.70;99.90;;;;;;5071744;28;20411;-77
2024/01/21 06:51:19;;;;;;;9.57;4.53;;;0.70;99.90;;;;;;5057119;28;20036;-78
2024/01/21 06:53:46;;;;;;;6.93;3.87;;;0.70;99.90;;;;;;5047111;28;20040;-78
2024/01/21 06:56:12;;;;;;;7.33;3.70;;;0.80;99.90;;;;;;5072258;28;20036;-76
2024/01/21 06:58:39;;;;;;;7.63;4.30;;;0.80;99.90;;;;;;5040474;28;20048;-78
2024/01/21 07:01:05;;;;;;;6.60;4.10;;;0.80;99.90;;;;;;5055655;28;20090;-75
2024/01/21 07:03:32;;;;;;;9.00;4.93;;;0.90;99.90;;;;;;5039980;28;20039;-78
2024/01/21 07:05:59;;;;;;;8.17;4.53;;;0.90;99.90;;;;;;5053626;28;20047;-74
2024/01/21 07:08:25;;;;;;;6.63;4.17;;;1.00;99.90;;;;;;5054254;28;20502;-77
2024/01/21 07:10:52;;;;;;;6.43;3.60;;;1.00;99.90;;;;;;5054438;28;20522;-74
2024/01/21 07:13:18;;;;;;;8.63;4.00;;;1.00;99.90;;;;;;5068486;28;20044;-77
2024/01/21 07:15:44;;;;;;;7.90;4.37;;;1.10;99.90;;;;;;5054655;28;20387;-76
2024/01/21 07:18:11;;;;;;;6.80;4.27;;;1.10;99.90;;;;;;5051002;28;20032;-77
2024/01/21 07:20:38;;;;;;;7.53;4.03;;;1.00;99.90;;;;;;5053118;28;20036;-80
2024/01/21 07:23:04;;;;;;;8.20;5.23;;;1.10;99.90;;;;;;5037348;28;20377;-78
2024/01/21 07:25:30;;;;;;;7.63;4.87;;;1.10;99.90;;;;;;5035705;28;20035;-77
2024/01/21 07:27:57;;;;;;;7.97;4.57;;;1.10;99.90;;;;;;5036529;28;20079;-74
2024/01/21 07:30:23;;;;;;;8.37;5.27;;;1.10;99.90;;;;;;5036142;28;20576;-76
2024/01/21 07:32:50;;;;;;;8.93;4.93;;;1.10;99.90;;;;;;5031536;28;20055;-77
2024/01/21 07:35:16;;;;;;;8.37;4.80;;;1.10;99.90;;;;;;5052713;28;20388;-78
2024/01/21 07:37:43;;;;;;;8.77;5.80;;;1.20;99.90;;;;;;5036072;28;20024;-78
2024/01/21 07:40:10;;;;;;;9.80;4.17;;;1.20;99.90;;;;;;5036167;28;20368;-77
2024/01/21 07:42:36;;;;;;;8.70;5.33;;;1.30;99.90;;;;;;5036795;28;20040;-78
2024/01/21 07:45:03;;;;;;;8.93;5.50;;;1.30;99.90;;;;;;5053869;28;20055;-77
2024/01/21 07:47:29;;;;;;;7.33;4.87;;;1.40;99.90;;;;;;5051617;28;20036;-78
2024/01/21 07:49:56;;;;;;;9.37;5.40;;;1.40;99.90;;;;;;5046267;28;20415;-76
2024/01/21 07:52:22;;;;;;;7.57;4.73;;;1.40;99.90;;;;;;5050376;28;20036;-77
2024/01/21 07:54:49;;;;;;;8.57;4.77;;;1.50;99.90;;;;;;5034144;28;20376;-74
2024/01/21 07:57:15;;;;;;;8.70;4.43;;;1.50;99.90;;;;;;5032104;28;20040;-78
2024/01/21 07:59:42;;;;;;;6.50;4.30;;;1.50;99.90;;;;;;5033318;28;20039;-73
2024/01/21 08:02:09;;;;;;;9.70;4.80;;;1.50;99.90;;;;;;5036462;28;21151;-76
2024/01/21 08:04:36;;;;;;;9.70;5.90;;;1.50;99.90;;;;;;5055887;28;20036;-77
2024/01/21 08:07:03;;;;;;;8.47;4.70;;;1.50;99.90;;;;;;5052955;28;20051;-76
2024/01/21 08:09:29;;;;;;;10.20;5.07;;;1.60;99.90;;;;;;5031636;28;20562;-76
2024/01/21 08:11:56;;;;;;;10.27;5.17;;;1.60;99.90;;;;;;5050028;28;20037;-74
2024/01/21 08:14:22;;;;;;;7.63;4.90;;;1.60;99.90;;;;;;5050903;28;20044;-77
2024/01/21 08:16:48;;;;;;;7.57;4.50;;;1.70;99.90;;;;;;5019579;28;20040;-77
2024/01/21 08:19:17;;;;;;;7.00;4.57;;;1.70;99.90;;;;;;5053362;28;20032;-73
2024/01/21 08:21:43;;;;;;;7.57;4.50;;;1.80;99.90;;;;;;5017941;28;20036;-77
2024/01/21 08:24:09;;;;;;;8.93;4.40;;;1.90;99.90;;;;;;5051785;28;20024;-78
2024/01/21 08:26:36;;;;;;;6.83;4.40;;;1.90;99.90;;;;;;5053720;28;20028;-75
2024/01/21 08:29:02;;;;;;;7.97;5.00;;;2.00;99.90;;;;;;5083436;27;20029;-75
2024/01/21 08:31:29;;;;;;;8.23;4.83;;;2.00;99.90;;;;;;5047803;28;20036;-77
2024/01/21 08:33:56;;;;;;;7.37;4.27;;;2.10;99.90;;;;;;5035819;28;20445;-78
2024/01/21 08:36:22;;;;;;;8.87;5.07;;;2.10;99.90;;;;;;5036403;28;20036;-76
2024/01/21 08:38:49;;;;;;;7.37;4.73;;;2.20;99.90;;;;;;5063790;28;20039;-76
2024/01/21 08:41:15;;;;;;;8.43;5.20;;;2.20;99.90;;;;;;5053707;28;20047;-77
2024/01/21 08:43:42;;;;;;;8.73;4.47;;;2.30;99.90;;;;;;5052475;28;20043;-77
2024/01/21 08:46:11;;;;;;;8.90;4.78;;;2.30;99.90;;;;;;5036947;28;20037;-76
2024/01/21 08:48:37;;;;;;;6.37;4.33;;;2.40;99.90;;;;;;5083746;28;20522;-76
2024/01/21 08:51:04;;;;;;;7.20;4.67;;;2.50;99.90;;;;;;5045445;28;20029;-78
2024/01/21 08:53:30;;;;;;;7.30;4.60;;;2.50;99.90;;;;;;5052368;28;20047;-77
2024/01/21 08:55:57;;;;;;;8.35;5.00;;;2.50;99.90;;;;;;5032939;28;20048;-75
2024/01/21 08:58:23;;;;;;;8.30;4.23;;;2.60;99.90;;;;;;5051144;28;20910;-75
2024/01/21 09:00:49;;;;;;;6.30;3.90;;;2.60;99.90;;;;;;5050489;28;20025;-76
2024/01/21 09:03:16;;;;;;;8.73;4.55;;;2.60;99.90;;;;;;5033512;28;20052;-72
2024/01/21 09:05:43;;;;;;;9.10;4.13;;;2.70;99.90;;;;;;5035057;28;20033;-76
2024/01/21 09:08:09;;;;;;;7.30;5.00;;;2.70;99.90;;;;;;5050378;28;20052;-73
2024/01/21 09:10:35;;;;;;;7.03;4.63;;;2.80;99.90;;;;;;5034789;28;20040;-77
2024/01/21 09:13:02;;;;;;;6.93;4.50;;;2.80;99.90;;;;;;5050616;28;20044;-76
2024/01/21 09:15:28;;;;;;;8.67;6.60;;;2.80;99.90;;;;;;5051492;28;20400;-76
2024/01/21 09:17:55;;;;;;;7.50;5.03;;;2.90;99.90;;;;;;5051384;28;20036;-75
2024/01/21 09:20:21;;;;;;;7.83;5.20;;;2.90;99.90;;;;;;5025932;28;20047;-76
2024/01/21 09:22:48;;;;;;;7.85;4.78;;;3.00;99.90;;;;;;5031372;28;20032;-75
2024/01/21 09:25:14;;;;;;;7.32;4.18;;;3.10;99.90;;;;;;5035851;28;20039;-77
2024/01/21 09:27:41;;;;;;;6.85;4.32;;;3.10;99.90;;;;;;5050544;28;20040;-75
2024/01/21 09:30:09;;;;;;;7.10;5.13;;;3.10;99.90;;;;;;5033711;28;20044;-76
2024/01/21 09:32:35;;;;;;;7.30;4.57;;;3.10;99.90;;;;;;5068455;28;20395;-74
2024/01/21 09:35:01;;;;;;;8.73;4.97;;;3.10;99.90;;;;;;5016323;28;20032;-76
2024/01/21 09:37:28;;;;;;;7.20;4.60;;;3.10;99.90;;;;;;5019447;28;20442;-73
2024/01/21 09:39:54;;;;;;;6.70;4.10;;;3.10;99.90;;;;;;5065593;28;20064;-76
2024/01/21 09:42:20;;;;;;;5.32;3.63;;;3.20;99.90;;;;;;5034395;28;20398;-75
2024/01/21 09:44:47;;;;;;;9.10;5.13;;;3.20;99.90;;;;;;5052168;28;20043;-75
2024/01/21 09:47:14;;;;;;;7.57;4.67;;;3.20;99.90;;;;;;5052803;28;20037;-78
2024/01/21 09:49:41;;;;;;;6.15;3.90;;;3.30;99.90;;;;;;5064840;28;20033;-72
2024/01/21 09:52:08;;;;;;;5.20;3.88;;;3.30;99.90;;;;;;5049593;28;20392;-75
2024/01/21 09:54:34;;;;;;;7.53;4.53;;;3.30;99.90;;;;;;5035576;28;20048;-75
2024/01/21 09:57:01;;;;;;;7.18;4.22;;;3.30;99.90;;;;;;5034504;28;20044;-73
2024/01/21 09:59:31;;;;;;;6.40;4.18;;;3.30;99.90;;;;;;5049293;28;20032;-76
2024/01/21 10:01:58;;;;;;;6.80;4.30;;;3.30;99.90;;;;;;5045242;28;20223;-74
2024/01/21 10:04:24;;;;;;;6.55;4.45;;;3.30;99.90;;;;;;5050339;28;20044;-77
2024/01/21 10:06:53;;;;;;;9.48;5.47;;;3.30;99.90;;;;;;5033778;28;20051;-73
2024/01/21 10:09:21;;;;;;;7.47;3.97;;;3.30;99.90;;;;;;5051897;28;20024;-75
2024/01/21 10:11:50;;;;;;;6.97;5.00;;;3.30;99.90;;;;;;5083131;27;20040;-75
2024/01/21 10:14:16;;;;;;;6.32;4.60;;;3.30;99.90;;;;;;5036694;28;20037;-73
2024/01/21 10:16:43;;;;;;;5.97;4.10;;;3.40;99.90;;;;;;5037082;28;20036;-76
2024/01/21 10:19:16;;;;;;;7.40;4.53;;;3.40;99.90;;;;;;5036508;28;20032;-73
2024/01/21 10:21:43;;;;;;;8.65;5.18;;;3.40;99.90;;;;;;5045202;28;20029;-74
2024/01/21 10:24:11;;;;;;;8.80;4.85;;;3.40;99.90;;;;;;5055224;28;20313;-76
2024/01/21 10:26:40;;;;;;;6.47;4.55;;;3.50;99.90;;;;;;5033908;28;20052;-76
2024/01/21 10:29:07;;;;;;;11.75;5.47;;;3.50;99.90;;;;;;5035795;28;20036;-76
2024/01/21 10:31:34;;;;;;;6.75;4.97;;;3.50;99.90;;;;;;5052160;28;20017;-75
2024/01/21 10:34:02;;;;;;;5.97;4.15;;;3.50;99.90;;;;;;5054843;28;20037;-77
2024/01/21 10:36:33;;;;;;;5.82;4.25;;;3.50;99.90;;;;;;5052761;28;20036;-76
2024/01/21 10:39:06;;;;;;;8.77;4.28;;;3.50;99.90;;;;;;5053859;28;20051;-75
2024/01/21 10:41:33;;;;;;;;;;;3.60;99.90;;;;;;5054354;28;20040;-76
2024/01/21 10:44:01;;;;;;;6.82;3.95;;;3.60;99.90;;;;;;5054626;28;19908;-75
2024/01/21 10:46:32;;;;;;;10.38;5.38;;;3.60;99.90;;;;;;5037896;28;20044;-76
2024/01/21 10:48:59;;;;;;;6.57;5.15;;;3.70;99.90;;;;;;5035578;28;20036;-74
2024/01/21 10:51:26;;;;;;;9.57;4.70;;;3.70;99.90;;;;;;5036977;28;20052;-76
2024/01/21 10:53:53;;;;;;;8.57;4.55;;;3.70;99.90;;;;;;5070875;28;20387;-75
2024/01/21 10:56:20;;;;;;;5.55;4.45;;;3.70;99.90;;;;;;5055243;28;20041;-73
2024/01/21 10:58:50;;;;;;;7.50;5.03;;;3.70;99.90;;;;;;5054986;28;20048;-75
2024/01/21 11:01:17;;;;;;;7.85;5.50;;;3.80;99.90;;;;;;5071330;28;20027;-75
2024/01/21 11:03:44;;;;;;;7.47;5.28;;;3.80;99.90;;;;;;5052770;28;20029;-76
2024/01/21 11:06:11;;;;;;;8.35;5.68;;;3.80;99.90;;;;;;5070293;28;20569;-75
2024/01/21 11:08:43;;;;;;;10.95;4.97;;;3.80;99.90;;;;;;5036335;28;20024;-75
2024/01/21 11:11:09;;;;;;;7.97;5.50;;;3.80;99.90;;;;;;5035489;28;20024;-75
2024/01/21 11:13:42;;;;;;;6.28;5.15;;;3.90;99.90;;;;;;5036700;28;20048;-73
2024/01/21 11:16:12;;;;;;;;;;;3.90;99.90;;;;;;5035422;28;20066;-74
2024/01/21 11:18:41;;;;;;;6.28;4.55;;;3.90;99.90;;;;;;5051505;28;20398;-75
2024/01/21 11:21:08;;;;;;;7.32;5.10;;;3.90;99.90;;;;;;5050352;28;20048;-74
2024/01/21 11:23:34;;;;;;;7.35;5.25;;;3.90;99.90;;;;;;5050004;28;20044;-75
2024/01/21 11:26:01;;;;;;;9.45;5.65;;;3.90;99.90;;;;;;5053675;28;20040;-75
2024/01/21 11:28:29;;;;;;;9.18;5.13;;;4.00;99.90;;;;;;5054670;28;20283;-74
2024/01/21 11:31:07;;;;;;;7.65;5.32;;;4.00;99.90;;;;;;5052210;28;20029;-74
2024/01/21 11:33:35;;;;;;;8.05;4.88;;;4.00;99.90;;;;;;5065924;28;20035;-74
2024/01/21 11:36:01;;;;;;;9.00;5.20;;;4.00;99.90;;;;;;5053238;28;20122;-75
2024/01/21 11:38:29;;;;;;;7.95;6.05;;;4.00;99.90;;;;;;5052944;28;20029;-74
2024/01/21 11:41:04;;;;;;;8.90;6.07;;;4.00;99.90;;;;;;5051562;28;20055;-75
2024/01/21 11:43:32;;;;;;;8.02;6.13;;;4.10;99.90;;;;;;5053324;28;20509;-74
2024/01/21 11:46:00;;;;;;;8.48;5.65;;;4.10;99.90;;;;;;5083533;27;20043;-75
2024/01/21 11:48:28;;;;;;;9.25;6.10;;;4.10;99.90;;;;;;5051946;28;20474;-73
2024/01/21 11:50:56;;;;;;;10.63;5.97;;;4.10;99.90;;;;;;5049018;28;20044;-74
2024/01/21 11:53:23;;;;;;;7.30;5.32;;;4.10;99.90;;;;;;5033359;28;20036;-75
2024/01/21 11:55:51;;;;;;;8.02;5.43;;;4.10;99.90;;;;;;5036006;28;20490;-75
2024/01/21 11:58:18;;;;;;;7.35;5.07;;;4.20;99.90;;;;;;5036172;28;20481;-74
2024/01/21 12:00:44;;;;;;;9.32;5.20;;;4.20;99.90;;;;;;5054247;28;20270;-75
2024/01/21 12:03:11;;;;;;;7.97;5.18;;;4.20;99.90;;;;;;5054410;28;20691;-74
2024/01/21 12:05:39;;;;;;;7.43;5.78;;;4.20;99.90;;;;;;5037500;28;20398;-73
2024/01/21 12:08:07;;;;;;;7.25;5.32;;;4.30;99.90;;;;;;5037932;28;20048;-74
2024/01/21 12:10:34;;;;;;;7.15;5.40;;;4.30;99.90;;;;;;5053338;28;20210;-75
2024/01/21 12:13:01;;;;;;;8.70;5.70;;;4.30;99.90;;;;;;5049770;28;20032;-74
2024/01/21 12:15:33;;;;;;;7.28;5.15;;;4.30;99.90;;;;;;5036030;28;20047;-74
2024/01/21 12:17:59;;;;;;;8.68;6.22;;;4.30;99.90;;;;;;5037119;28;20361;-74
2024/01/21 12:20:26;;;;;;;7.85;5.63;;;4.40;99.90;;;;;;5051699;28;20047;-75
2024/01/21 12:22:52;;;;;;;8.45;5.95;;;4.40;99.90;;;;;;5052477;28;20806;-75
2024/01/21 12:25:19;;;;;;;12.20;6.47;;;4.30;99.90;;;;;;5054193;28;20387;-74
2024/01/21 12:27:46;;;;;;;8.45;5.65;;;4.30;99.90;;;;;;5069329;28;20040;-75
2024/01/21 12:30:13;;;;;;;12.43;6.55;;;4.30;99.90;;;;;;5036819;28;20029;-74
2024/01/21 12:32:41;;;;;;;7.85;5.57;;;4.40;99.90;;;;;;5036259;28;20584;-75
2024/01/21 12:35:07;;;;;;;8.82;6.55;;;4.30;99.90;;;;;;5037237;28;20498;-75
2024/01/21 12:37:34;;;;;;;10.13;6.63;;;4.30;99.90;;;;;;5050322;28;20475;-75
2024/01/21 12:40:01;;;;;;;11.85;6.20;;;4.40;99.90;;;;;;5012079;28;20044;-74
2024/01/21 12:42:27;;;;;;;9.05;6.13;;;4.30;99.90;;;;;;5032058;28;20044;-74
2024/01/21 12:44:54;;;;;;;10.88;7.20;;;4.40;99.90;;;;;;5050917;28;20031;-74
2024/01/21 12:47:20;;;;;;;9.10;6.72;;;4.40;99.90;;;;;;5050881;28;20033;-75
2024/01/21 12:49:46;;;;;;;11.05;7.00;;;4.40;99.90;;;;;;5051374;28;20046;-73